<?xml version="1.0" encoding="UTF-8" standalone="no" ?>
<gpx xmlns="http://www.topografix.com/GPX/1/1" xmlns:xsi="http://www.w3.org/2001/XMLSchema-instance" xsi:schemaLocation="http://www.topografix.com/GPX/1/1 http://www.topografix.com/GPX/1/1/gpx.xsd" version="1.1" creator="VisuGPX - https://www.visugpx.com">
  <metadata>
    <name>Malleval patachons</name>
  </metadata>
  <trk>
    <name><![CDATA[17-MARS-22 02:53:45 PM]]></name>
    <extensions>
      <line xmlns="http://www.topografix.com/GPX/gpx_style/0/2">
        <color>0000FF</color>
        <width>4</width>
      </line>
    </extensions>
    <trkseg>
      <trkpt lat="45.38538" lon="4.7245">
        <ele>246.72</ele>
        <time>2022-03-17T08:30:44Z</time>
        <extensions>
          <visugpx:TrkExtension xmlns:visugpx="https://www.visugpx.com/editgpx/">
            <visugpx:node>3</visugpx:node>
            </visugpx:TrkExtension>
        </extensions>
      </trkpt>
      <trkpt lat="45.38542" lon="4.72468">
        <ele>247.2</ele>
        <time>2022-03-17T08:31:09Z</time>
      </trkpt>
      <trkpt lat="45.38542" lon="4.72466">
        <ele>247.68</ele>
        <time>2022-03-17T08:31:23Z</time>
      </trkpt>
      <trkpt lat="45.38539" lon="4.72468">
        <ele>248.16</ele>
        <time>2022-03-17T08:31:42Z</time>
      </trkpt>
      <trkpt lat="45.38537" lon="4.72467">
        <ele>247.68</ele>
        <time>2022-03-17T08:32:21Z</time>
      </trkpt>
      <trkpt lat="45.38538" lon="4.72465">
        <ele>247.68</ele>
        <time>2022-03-17T08:32:58Z</time>
      </trkpt>
      <trkpt lat="45.38536" lon="4.72469">
        <ele>247.68</ele>
        <time>2022-03-17T08:33:27Z</time>
      </trkpt>
      <trkpt lat="45.38534" lon="4.72469">
        <ele>248.16</ele>
        <time>2022-03-17T08:34:00Z</time>
      </trkpt>
      <trkpt lat="45.38532" lon="4.72471">
        <ele>248.16</ele>
        <time>2022-03-17T08:34:20Z</time>
      </trkpt>
      <trkpt lat="45.38531" lon="4.72487">
        <ele>247.68</ele>
        <time>2022-03-17T08:34:36Z</time>
      </trkpt>
      <trkpt lat="45.38531" lon="4.72494">
        <ele>248.64</ele>
        <time>2022-03-17T08:34:59Z</time>
      </trkpt>
      <trkpt lat="45.38531" lon="4.72505">
        <ele>248.64</ele>
        <time>2022-03-17T08:35:08Z</time>
      </trkpt>
      <trkpt lat="45.38522" lon="4.72524">
        <ele>246.23</ele>
        <time>2022-03-17T08:35:24Z</time>
      </trkpt>
      <trkpt lat="45.38516" lon="4.7254">
        <ele>245.75</ele>
        <time>2022-03-17T08:35:40Z</time>
      </trkpt>
      <trkpt lat="45.38511" lon="4.72543">
        <ele>246.23</ele>
        <time>2022-03-17T08:35:44Z</time>
      </trkpt>
      <trkpt lat="45.38503" lon="4.72548">
        <ele>246.23</ele>
        <time>2022-03-17T08:35:58Z</time>
      </trkpt>
      <trkpt lat="45.38496" lon="4.72557">
        <ele>245.75</ele>
        <time>2022-03-17T08:36:12Z</time>
      </trkpt>
      <trkpt lat="45.38484" lon="4.72566">
        <ele>245.27</ele>
        <time>2022-03-17T08:36:26Z</time>
      </trkpt>
      <trkpt lat="45.3847" lon="4.7258">
        <ele>245.75</ele>
        <time>2022-03-17T08:36:38Z</time>
      </trkpt>
      <trkpt lat="45.38456" lon="4.72599">
        <ele>244.79</ele>
        <time>2022-03-17T08:36:54Z</time>
      </trkpt>
      <trkpt lat="45.38444" lon="4.72605">
        <ele>244.31</ele>
        <time>2022-03-17T08:37:07Z</time>
      </trkpt>
      <trkpt lat="45.38433" lon="4.72618">
        <ele>243.35</ele>
        <time>2022-03-17T08:37:22Z</time>
      </trkpt>
      <trkpt lat="45.38432" lon="4.72629">
        <ele>242.87</ele>
        <time>2022-03-17T08:37:50Z</time>
      </trkpt>
      <trkpt lat="45.38425" lon="4.72633">
        <ele>241.91</ele>
        <time>2022-03-17T08:38:10Z</time>
      </trkpt>
      <trkpt lat="45.38408" lon="4.72635">
        <ele>242.39</ele>
        <time>2022-03-17T08:38:29Z</time>
      </trkpt>
      <trkpt lat="45.38404" lon="4.72643">
        <ele>242.39</ele>
        <time>2022-03-17T08:39:01Z</time>
      </trkpt>
      <trkpt lat="45.38404" lon="4.72634">
        <ele>242.39</ele>
        <time>2022-03-17T08:39:27Z</time>
      </trkpt>
      <trkpt lat="45.38403" lon="4.72633">
        <ele>242.39</ele>
        <time>2022-03-17T08:39:51Z</time>
      </trkpt>
      <trkpt lat="45.38397" lon="4.72639">
        <ele>242.39</ele>
        <time>2022-03-17T08:40:08Z</time>
      </trkpt>
      <trkpt lat="45.38396" lon="4.72641">
        <ele>242.87</ele>
        <time>2022-03-17T08:40:38Z</time>
      </trkpt>
      <trkpt lat="45.38396" lon="4.72638">
        <ele>243.35</ele>
        <time>2022-03-17T08:41:07Z</time>
      </trkpt>
      <trkpt lat="45.38392" lon="4.72646">
        <ele>243.35</ele>
        <time>2022-03-17T08:41:15Z</time>
      </trkpt>
      <trkpt lat="45.38379" lon="4.7266">
        <ele>243.83</ele>
        <time>2022-03-17T08:41:29Z</time>
      </trkpt>
      <trkpt lat="45.38371" lon="4.72669">
        <ele>243.35</ele>
        <time>2022-03-17T08:41:44Z</time>
      </trkpt>
      <trkpt lat="45.38356" lon="4.72678">
        <ele>243.83</ele>
        <time>2022-03-17T08:41:59Z</time>
      </trkpt>
      <trkpt lat="45.38342" lon="4.72698">
        <ele>245.75</ele>
        <time>2022-03-17T08:42:17Z</time>
      </trkpt>
      <trkpt lat="45.38341" lon="4.72714">
        <ele>247.2</ele>
        <time>2022-03-17T08:42:27Z</time>
      </trkpt>
      <trkpt lat="45.38324" lon="4.72732">
        <ele>246.72</ele>
        <time>2022-03-17T08:42:45Z</time>
      </trkpt>
      <trkpt lat="45.38319" lon="4.72739">
        <ele>246.23</ele>
        <time>2022-03-17T08:42:51Z</time>
      </trkpt>
      <trkpt lat="45.38314" lon="4.72766">
        <ele>245.75</ele>
        <time>2022-03-17T08:43:07Z</time>
      </trkpt>
      <trkpt lat="45.38313" lon="4.72779">
        <ele>245.27</ele>
        <time>2022-03-17T08:43:17Z</time>
      </trkpt>
      <trkpt lat="45.38311" lon="4.72798">
        <ele>244.31</ele>
        <time>2022-03-17T08:43:29Z</time>
      </trkpt>
      <trkpt lat="45.38311" lon="4.72806">
        <ele>243.83</ele>
        <time>2022-03-17T08:43:34Z</time>
      </trkpt>
      <trkpt lat="45.38311" lon="4.7283">
        <ele>242.39</ele>
        <time>2022-03-17T08:43:50Z</time>
      </trkpt>
      <trkpt lat="45.38316" lon="4.72855">
        <ele>240.95</ele>
        <time>2022-03-17T08:44:06Z</time>
      </trkpt>
      <trkpt lat="45.38322" lon="4.72871">
        <ele>240.47</ele>
        <time>2022-03-17T08:44:23Z</time>
      </trkpt>
      <trkpt lat="45.38327" lon="4.72885">
        <ele>239.51</ele>
        <time>2022-03-17T08:44:41Z</time>
      </trkpt>
      <trkpt lat="45.38328" lon="4.72881">
        <ele>239.51</ele>
        <time>2022-03-17T08:44:54Z</time>
      </trkpt>
      <trkpt lat="45.38326" lon="4.72877">
        <ele>239.02</ele>
        <time>2022-03-17T08:45:06Z</time>
      </trkpt>
      <trkpt lat="45.38323" lon="4.72874">
        <ele>239.02</ele>
        <time>2022-03-17T08:45:23Z</time>
      </trkpt>
      <trkpt lat="45.38315" lon="4.7288">
        <ele>239.02</ele>
        <time>2022-03-17T08:45:55Z</time>
      </trkpt>
      <trkpt lat="45.38316" lon="4.72856">
        <ele>237.1</ele>
        <time>2022-03-17T08:46:11Z</time>
      </trkpt>
      <trkpt lat="45.38319" lon="4.72834">
        <ele>233.74</ele>
        <time>2022-03-17T08:46:30Z</time>
      </trkpt>
      <trkpt lat="45.38325" lon="4.72828">
        <ele>230.85</ele>
        <time>2022-03-17T08:46:44Z</time>
      </trkpt>
      <trkpt lat="45.38336" lon="4.72844">
        <ele>227.49</ele>
        <time>2022-03-17T08:46:59Z</time>
      </trkpt>
      <trkpt lat="45.38345" lon="4.72852">
        <ele>224.61</ele>
        <time>2022-03-17T08:47:14Z</time>
      </trkpt>
      <trkpt lat="45.38345" lon="4.72846">
        <ele>222.68</ele>
        <time>2022-03-17T08:47:23Z</time>
      </trkpt>
      <trkpt lat="45.38348" lon="4.72855">
        <ele>221.24</ele>
        <time>2022-03-17T08:47:37Z</time>
      </trkpt>
      <trkpt lat="45.38354" lon="4.72868">
        <ele>220.28</ele>
        <time>2022-03-17T08:47:52Z</time>
      </trkpt>
      <trkpt lat="45.38374" lon="4.72883">
        <ele>221.72</ele>
        <time>2022-03-17T09:13:15Z</time>
      </trkpt>
      <trkpt lat="45.38382" lon="4.72887">
        <ele>222.68</ele>
        <time>2022-03-17T09:13:27Z</time>
      </trkpt>
      <trkpt lat="45.38391" lon="4.72896">
        <ele>224.12</ele>
        <time>2022-03-17T09:13:43Z</time>
      </trkpt>
      <trkpt lat="45.384" lon="4.72922">
        <ele>227.01</ele>
        <time>2022-03-17T09:13:58Z</time>
      </trkpt>
      <trkpt lat="45.38401" lon="4.72939">
        <ele>228.93</ele>
        <time>2022-03-17T09:14:11Z</time>
      </trkpt>
      <trkpt lat="45.38392" lon="4.7296">
        <ele>230.85</ele>
        <time>2022-03-17T09:14:27Z</time>
      </trkpt>
      <trkpt lat="45.38386" lon="4.72989">
        <ele>233.26</ele>
        <time>2022-03-17T09:14:45Z</time>
      </trkpt>
      <trkpt lat="45.38388" lon="4.73009">
        <ele>235.18</ele>
        <time>2022-03-17T09:15:00Z</time>
      </trkpt>
      <trkpt lat="45.38382" lon="4.73028">
        <ele>237.1</ele>
        <time>2022-03-17T09:15:16Z</time>
      </trkpt>
      <trkpt lat="45.38372" lon="4.73042">
        <ele>238.54</ele>
        <time>2022-03-17T09:15:29Z</time>
      </trkpt>
      <trkpt lat="45.38368" lon="4.73061">
        <ele>239.51</ele>
        <time>2022-03-17T09:15:44Z</time>
      </trkpt>
      <trkpt lat="45.38366" lon="4.73085">
        <ele>241.91</ele>
        <time>2022-03-17T09:16:02Z</time>
      </trkpt>
      <trkpt lat="45.38364" lon="4.73107">
        <ele>242.39</ele>
        <time>2022-03-17T09:16:19Z</time>
      </trkpt>
      <trkpt lat="45.38366" lon="4.73112">
        <ele>242.39</ele>
        <time>2022-03-17T09:16:23Z</time>
      </trkpt>
      <trkpt lat="45.38368" lon="4.73125">
        <ele>241.43</ele>
        <time>2022-03-17T09:16:37Z</time>
      </trkpt>
      <trkpt lat="45.38371" lon="4.73126">
        <ele>241.91</ele>
        <time>2022-03-17T09:16:50Z</time>
      </trkpt>
      <trkpt lat="45.38373" lon="4.73131">
        <ele>240.95</ele>
        <time>2022-03-17T09:16:55Z</time>
      </trkpt>
      <trkpt lat="45.38376" lon="4.73144">
        <ele>241.43</ele>
        <time>2022-03-17T09:17:09Z</time>
      </trkpt>
      <trkpt lat="45.38386" lon="4.73157">
        <ele>241.91</ele>
        <time>2022-03-17T09:17:23Z</time>
      </trkpt>
      <trkpt lat="45.38393" lon="4.73166">
        <ele>243.83</ele>
        <time>2022-03-17T09:17:34Z</time>
      </trkpt>
      <trkpt lat="45.38395" lon="4.7317">
        <ele>244.31</ele>
        <time>2022-03-17T09:17:38Z</time>
      </trkpt>
      <trkpt lat="45.38402" lon="4.73179">
        <ele>246.23</ele>
        <time>2022-03-17T09:17:50Z</time>
      </trkpt>
      <trkpt lat="45.38409" lon="4.73191">
        <ele>247.2</ele>
        <time>2022-03-17T09:18:03Z</time>
      </trkpt>
      <trkpt lat="45.38411" lon="4.73195">
        <ele>247.68</ele>
        <time>2022-03-17T09:18:06Z</time>
      </trkpt>
      <trkpt lat="45.38413" lon="4.73196">
        <ele>248.16</ele>
        <time>2022-03-17T09:18:08Z</time>
      </trkpt>
      <trkpt lat="45.38423" lon="4.73207">
        <ele>248.64</ele>
        <time>2022-03-17T09:18:22Z</time>
      </trkpt>
      <trkpt lat="45.38435" lon="4.73217">
        <ele>250.08</ele>
        <time>2022-03-17T09:18:38Z</time>
      </trkpt>
      <trkpt lat="45.38448" lon="4.73228">
        <ele>252</ele>
        <time>2022-03-17T09:18:55Z</time>
      </trkpt>
      <trkpt lat="45.38466" lon="4.73227">
        <ele>253.93</ele>
        <time>2022-03-17T09:19:12Z</time>
      </trkpt>
      <trkpt lat="45.38482" lon="4.73225">
        <ele>255.37</ele>
        <time>2022-03-17T09:19:27Z</time>
      </trkpt>
      <trkpt lat="45.38494" lon="4.73217">
        <ele>257.77</ele>
        <time>2022-03-17T09:19:44Z</time>
      </trkpt>
      <trkpt lat="45.38508" lon="4.7321">
        <ele>259.69</ele>
        <time>2022-03-17T09:20:00Z</time>
      </trkpt>
      <trkpt lat="45.38522" lon="4.73204">
        <ele>261.62</ele>
        <time>2022-03-17T09:20:18Z</time>
      </trkpt>
      <trkpt lat="45.38533" lon="4.73198">
        <ele>264.98</ele>
        <time>2022-03-17T09:20:33Z</time>
      </trkpt>
      <trkpt lat="45.38542" lon="4.732">
        <ele>268.35</ele>
        <time>2022-03-17T09:20:45Z</time>
      </trkpt>
      <trkpt lat="45.38551" lon="4.73211">
        <ele>268.83</ele>
        <time>2022-03-17T09:20:59Z</time>
      </trkpt>
      <trkpt lat="45.38557" lon="4.73219">
        <ele>269.31</ele>
        <time>2022-03-17T09:21:08Z</time>
      </trkpt>
      <trkpt lat="45.38562" lon="4.73222">
        <ele>268.83</ele>
        <time>2022-03-17T09:21:21Z</time>
      </trkpt>
      <trkpt lat="45.38565" lon="4.7322">
        <ele>268.83</ele>
        <time>2022-03-17T09:21:35Z</time>
      </trkpt>
      <trkpt lat="45.38567" lon="4.73216">
        <ele>269.31</ele>
        <time>2022-03-17T09:21:39Z</time>
      </trkpt>
      <trkpt lat="45.38571" lon="4.73199">
        <ele>269.79</ele>
        <time>2022-03-17T09:21:55Z</time>
      </trkpt>
      <trkpt lat="45.38575" lon="4.73181">
        <ele>273.15</ele>
        <time>2022-03-17T09:22:10Z</time>
      </trkpt>
      <trkpt lat="45.3858" lon="4.73164">
        <ele>276.04</ele>
        <time>2022-03-17T09:22:28Z</time>
      </trkpt>
      <trkpt lat="45.38583" lon="4.73151">
        <ele>279.4</ele>
        <time>2022-03-17T09:22:41Z</time>
      </trkpt>
      <trkpt lat="45.38588" lon="4.73134">
        <ele>280.84</ele>
        <time>2022-03-17T09:22:59Z</time>
      </trkpt>
      <trkpt lat="45.38595" lon="4.73117">
        <ele>284.21</ele>
        <time>2022-03-17T09:23:17Z</time>
      </trkpt>
      <trkpt lat="45.38604" lon="4.73098">
        <ele>286.61</ele>
        <time>2022-03-17T09:23:35Z</time>
      </trkpt>
      <trkpt lat="45.38612" lon="4.73077">
        <ele>289.49</ele>
        <time>2022-03-17T09:23:53Z</time>
      </trkpt>
      <trkpt lat="45.38619" lon="4.7306">
        <ele>291.9</ele>
        <time>2022-03-17T09:24:10Z</time>
      </trkpt>
      <trkpt lat="45.38624" lon="4.73044">
        <ele>295.26</ele>
        <time>2022-03-17T09:24:24Z</time>
      </trkpt>
      <trkpt lat="45.3863" lon="4.73024">
        <ele>297.18</ele>
        <time>2022-03-17T09:24:41Z</time>
      </trkpt>
      <trkpt lat="45.38635" lon="4.73008">
        <ele>298.63</ele>
        <time>2022-03-17T09:24:56Z</time>
      </trkpt>
      <trkpt lat="45.38638" lon="4.72993">
        <ele>300.07</ele>
        <time>2022-03-17T09:25:10Z</time>
      </trkpt>
      <trkpt lat="45.38648" lon="4.72966">
        <ele>300.55</ele>
        <time>2022-03-17T09:25:31Z</time>
      </trkpt>
      <trkpt lat="45.38654" lon="4.72948">
        <ele>302.47</ele>
        <time>2022-03-17T09:25:51Z</time>
      </trkpt>
      <trkpt lat="45.38657" lon="4.72942">
        <ele>303.91</ele>
        <time>2022-03-17T09:25:59Z</time>
      </trkpt>
      <trkpt lat="45.38668" lon="4.72922">
        <ele>304.88</ele>
        <time>2022-03-17T09:26:14Z</time>
      </trkpt>
      <trkpt lat="45.38674" lon="4.72908">
        <ele>304.39</ele>
        <time>2022-03-17T09:26:29Z</time>
      </trkpt>
      <trkpt lat="45.38688" lon="4.72886">
        <ele>305.84</ele>
        <time>2022-03-17T09:26:48Z</time>
      </trkpt>
      <trkpt lat="45.3869" lon="4.72884">
        <ele>306.32</ele>
        <time>2022-03-17T09:26:50Z</time>
      </trkpt>
      <trkpt lat="45.38702" lon="4.72862">
        <ele>306.32</ele>
        <time>2022-03-17T09:27:09Z</time>
      </trkpt>
      <trkpt lat="45.38718" lon="4.72833">
        <ele>306.32</ele>
        <time>2022-03-17T09:27:30Z</time>
      </trkpt>
      <trkpt lat="45.38722" lon="4.7282">
        <ele>305.84</ele>
        <time>2022-03-17T09:27:38Z</time>
      </trkpt>
      <trkpt lat="45.38725" lon="4.72815">
        <ele>306.32</ele>
        <time>2022-03-17T09:27:42Z</time>
      </trkpt>
      <trkpt lat="45.38737" lon="4.72791">
        <ele>305.84</ele>
        <time>2022-03-17T09:27:58Z</time>
      </trkpt>
      <trkpt lat="45.38745" lon="4.72771">
        <ele>305.36</ele>
        <time>2022-03-17T09:28:11Z</time>
      </trkpt>
      <trkpt lat="45.38756" lon="4.72751">
        <ele>306.32</ele>
        <time>2022-03-17T09:28:26Z</time>
      </trkpt>
      <trkpt lat="45.38765" lon="4.72732">
        <ele>306.8</ele>
        <time>2022-03-17T09:28:40Z</time>
      </trkpt>
      <trkpt lat="45.38775" lon="4.72713">
        <ele>307.28</ele>
        <time>2022-03-17T09:28:56Z</time>
      </trkpt>
      <trkpt lat="45.38788" lon="4.72694">
        <ele>308.24</ele>
        <time>2022-03-17T09:29:13Z</time>
      </trkpt>
      <trkpt lat="45.388" lon="4.72678">
        <ele>308.72</ele>
        <time>2022-03-17T09:29:28Z</time>
      </trkpt>
      <trkpt lat="45.38804" lon="4.72673">
        <ele>308.24</ele>
        <time>2022-03-17T09:29:32Z</time>
      </trkpt>
      <trkpt lat="45.3882" lon="4.72657">
        <ele>308.24</ele>
        <time>2022-03-17T09:29:50Z</time>
      </trkpt>
      <trkpt lat="45.38837" lon="4.72658">
        <ele>308.72</ele>
        <time>2022-03-17T09:30:05Z</time>
      </trkpt>
      <trkpt lat="45.38851" lon="4.72659">
        <ele>309.2</ele>
        <time>2022-03-17T09:30:21Z</time>
      </trkpt>
      <trkpt lat="45.38846" lon="4.72645">
        <ele>307.28</ele>
        <time>2022-03-17T09:30:33Z</time>
      </trkpt>
      <trkpt lat="45.3885" lon="4.72628">
        <ele>308.24</ele>
        <time>2022-03-17T09:30:48Z</time>
      </trkpt>
      <trkpt lat="45.38856" lon="4.72618">
        <ele>310.16</ele>
        <time>2022-03-17T09:31:03Z</time>
      </trkpt>
      <trkpt lat="45.38865" lon="4.72598">
        <ele>312.09</ele>
        <time>2022-03-17T09:31:20Z</time>
      </trkpt>
      <trkpt lat="45.38876" lon="4.72577">
        <ele>313.53</ele>
        <time>2022-03-17T09:31:41Z</time>
      </trkpt>
      <trkpt lat="45.38886" lon="4.72553">
        <ele>314.97</ele>
        <time>2022-03-17T09:32:00Z</time>
      </trkpt>
      <trkpt lat="45.38888" lon="4.72548">
        <ele>315.93</ele>
        <time>2022-03-17T09:32:14Z</time>
      </trkpt>
      <trkpt lat="45.38891" lon="4.72546">
        <ele>314.97</ele>
        <time>2022-03-17T09:32:30Z</time>
      </trkpt>
      <trkpt lat="45.38902" lon="4.72528">
        <ele>315.45</ele>
        <time>2022-03-17T09:32:45Z</time>
      </trkpt>
      <trkpt lat="45.38914" lon="4.72509">
        <ele>316.41</ele>
        <time>2022-03-17T09:33:02Z</time>
      </trkpt>
      <trkpt lat="45.38918" lon="4.72502">
        <ele>317.37</ele>
        <time>2022-03-17T09:33:08Z</time>
      </trkpt>
      <trkpt lat="45.3893" lon="4.72479">
        <ele>318.33</ele>
        <time>2022-03-17T09:33:26Z</time>
      </trkpt>
      <trkpt lat="45.38944" lon="4.7246">
        <ele>320.26</ele>
        <time>2022-03-17T09:33:44Z</time>
      </trkpt>
      <trkpt lat="45.3895" lon="4.72449">
        <ele>321.22</ele>
        <time>2022-03-17T09:33:53Z</time>
      </trkpt>
      <trkpt lat="45.38961" lon="4.72427">
        <ele>321.22</ele>
        <time>2022-03-17T09:34:12Z</time>
      </trkpt>
      <trkpt lat="45.38972" lon="4.72405">
        <ele>324.1</ele>
        <time>2022-03-17T09:34:31Z</time>
      </trkpt>
      <trkpt lat="45.38982" lon="4.72383">
        <ele>324.58</ele>
        <time>2022-03-17T09:34:47Z</time>
      </trkpt>
      <trkpt lat="45.38991" lon="4.72357">
        <ele>325.54</ele>
        <time>2022-03-17T09:35:05Z</time>
      </trkpt>
      <trkpt lat="45.38998" lon="4.72335">
        <ele>325.54</ele>
        <time>2022-03-17T09:35:20Z</time>
      </trkpt>
      <trkpt lat="45.39007" lon="4.72307">
        <ele>325.54</ele>
        <time>2022-03-17T09:35:38Z</time>
      </trkpt>
      <trkpt lat="45.39016" lon="4.72278">
        <ele>326.02</ele>
        <time>2022-03-17T09:35:58Z</time>
      </trkpt>
      <trkpt lat="45.39022" lon="4.72249">
        <ele>326.5</ele>
        <time>2022-03-17T09:36:16Z</time>
      </trkpt>
      <trkpt lat="45.39028" lon="4.72224">
        <ele>326.99</ele>
        <time>2022-03-17T09:36:32Z</time>
      </trkpt>
      <trkpt lat="45.39034" lon="4.72193">
        <ele>326.99</ele>
        <time>2022-03-17T09:36:51Z</time>
      </trkpt>
      <trkpt lat="45.39042" lon="4.72163">
        <ele>327.47</ele>
        <time>2022-03-17T09:37:10Z</time>
      </trkpt>
      <trkpt lat="45.39044" lon="4.72163">
        <ele>327.47</ele>
        <time>2022-03-17T09:37:12Z</time>
      </trkpt>
      <trkpt lat="45.39042" lon="4.72146">
        <ele>328.91</ele>
        <time>2022-03-17T09:37:29Z</time>
      </trkpt>
      <trkpt lat="45.39044" lon="4.72136">
        <ele>328.43</ele>
        <time>2022-03-17T09:37:54Z</time>
      </trkpt>
      <trkpt lat="45.39045" lon="4.72128">
        <ele>329.39</ele>
        <time>2022-03-17T09:37:59Z</time>
      </trkpt>
      <trkpt lat="45.3905" lon="4.72101">
        <ele>328.91</ele>
        <time>2022-03-17T09:38:16Z</time>
      </trkpt>
      <trkpt lat="45.39052" lon="4.72082">
        <ele>329.87</ele>
        <time>2022-03-17T09:38:34Z</time>
      </trkpt>
      <trkpt lat="45.39056" lon="4.72068">
        <ele>329.87</ele>
        <time>2022-03-17T09:38:49Z</time>
      </trkpt>
      <trkpt lat="45.3906" lon="4.72045">
        <ele>330.83</ele>
        <time>2022-03-17T09:39:06Z</time>
      </trkpt>
      <trkpt lat="45.39063" lon="4.7202">
        <ele>332.27</ele>
        <time>2022-03-17T09:39:22Z</time>
      </trkpt>
      <trkpt lat="45.39068" lon="4.72001">
        <ele>333.23</ele>
        <time>2022-03-17T09:39:37Z</time>
      </trkpt>
      <trkpt lat="45.39068" lon="4.71997">
        <ele>333.71</ele>
        <time>2022-03-17T09:39:40Z</time>
      </trkpt>
      <trkpt lat="45.39066" lon="4.7197">
        <ele>335.64</ele>
        <time>2022-03-17T09:39:57Z</time>
      </trkpt>
      <trkpt lat="45.39069" lon="4.71944">
        <ele>336.6</ele>
        <time>2022-03-17T09:40:15Z</time>
      </trkpt>
      <trkpt lat="45.39069" lon="4.71943">
        <ele>336.6</ele>
        <time>2022-03-17T09:40:16Z</time>
      </trkpt>
      <trkpt lat="45.39071" lon="4.71919">
        <ele>338.52</ele>
        <time>2022-03-17T09:40:34Z</time>
      </trkpt>
      <trkpt lat="45.39076" lon="4.71894">
        <ele>339.48</ele>
        <time>2022-03-17T09:40:51Z</time>
      </trkpt>
      <trkpt lat="45.3908" lon="4.71868">
        <ele>340.44</ele>
        <time>2022-03-17T09:41:09Z</time>
      </trkpt>
      <trkpt lat="45.39089" lon="4.71845">
        <ele>339.96</ele>
        <time>2022-03-17T09:41:26Z</time>
      </trkpt>
      <trkpt lat="45.39098" lon="4.71824">
        <ele>341.41</ele>
        <time>2022-03-17T09:41:43Z</time>
      </trkpt>
      <trkpt lat="45.39107" lon="4.718">
        <ele>342.37</ele>
        <time>2022-03-17T09:42:00Z</time>
      </trkpt>
      <trkpt lat="45.39117" lon="4.71774">
        <ele>343.33</ele>
        <time>2022-03-17T09:42:19Z</time>
      </trkpt>
      <trkpt lat="45.39121" lon="4.71751">
        <ele>345.25</ele>
        <time>2022-03-17T09:42:34Z</time>
      </trkpt>
      <trkpt lat="45.39124" lon="4.71723">
        <ele>346.69</ele>
        <time>2022-03-17T09:42:52Z</time>
      </trkpt>
      <trkpt lat="45.39125" lon="4.71706">
        <ele>346.69</ele>
        <time>2022-03-17T09:43:07Z</time>
      </trkpt>
      <trkpt lat="45.39126" lon="4.71702">
        <ele>346.69</ele>
        <time>2022-03-17T09:43:11Z</time>
      </trkpt>
      <trkpt lat="45.3913" lon="4.71689">
        <ele>345.25</ele>
        <time>2022-03-17T09:43:21Z</time>
      </trkpt>
      <trkpt lat="45.39138" lon="4.7166">
        <ele>346.21</ele>
        <time>2022-03-17T09:43:39Z</time>
      </trkpt>
      <trkpt lat="45.39146" lon="4.71636">
        <ele>346.21</ele>
        <time>2022-03-17T09:43:55Z</time>
      </trkpt>
      <trkpt lat="45.39156" lon="4.71621">
        <ele>345.25</ele>
        <time>2022-03-17T09:44:10Z</time>
      </trkpt>
      <trkpt lat="45.39156" lon="4.71618">
        <ele>347.17</ele>
        <time>2022-03-17T09:44:12Z</time>
      </trkpt>
      <trkpt lat="45.39165" lon="4.71591">
        <ele>346.69</ele>
        <time>2022-03-17T09:44:31Z</time>
      </trkpt>
      <trkpt lat="45.39173" lon="4.71565">
        <ele>347.65</ele>
        <time>2022-03-17T09:44:49Z</time>
      </trkpt>
      <trkpt lat="45.39187" lon="4.71541">
        <ele>348.62</ele>
        <time>2022-03-17T09:45:07Z</time>
      </trkpt>
      <trkpt lat="45.39197" lon="4.71524">
        <ele>349.58</ele>
        <time>2022-03-17T09:45:22Z</time>
      </trkpt>
      <trkpt lat="45.39209" lon="4.71499">
        <ele>349.58</ele>
        <time>2022-03-17T09:45:40Z</time>
      </trkpt>
      <trkpt lat="45.39222" lon="4.71474">
        <ele>350.06</ele>
        <time>2022-03-17T09:45:58Z</time>
      </trkpt>
      <trkpt lat="45.3923" lon="4.71457">
        <ele>350.54</ele>
        <time>2022-03-17T09:46:15Z</time>
      </trkpt>
      <trkpt lat="45.39241" lon="4.7144">
        <ele>350.06</ele>
        <time>2022-03-17T09:46:28Z</time>
      </trkpt>
      <trkpt lat="45.39256" lon="4.71416">
        <ele>350.06</ele>
        <time>2022-03-17T09:46:47Z</time>
      </trkpt>
      <trkpt lat="45.39272" lon="4.71393">
        <ele>350.54</ele>
        <time>2022-03-17T09:47:07Z</time>
      </trkpt>
      <trkpt lat="45.39286" lon="4.71371">
        <ele>350.06</ele>
        <time>2022-03-17T09:47:26Z</time>
      </trkpt>
      <trkpt lat="45.39298" lon="4.71347">
        <ele>351.02</ele>
        <time>2022-03-17T09:47:45Z</time>
      </trkpt>
      <trkpt lat="45.39302" lon="4.71353">
        <ele>351.5</ele>
        <time>2022-03-17T09:47:57Z</time>
      </trkpt>
      <trkpt lat="45.393" lon="4.71354">
        <ele>351.02</ele>
        <time>2022-03-17T09:48:17Z</time>
      </trkpt>
      <trkpt lat="45.39298" lon="4.71352">
        <ele>351.5</ele>
        <time>2022-03-17T09:48:42Z</time>
      </trkpt>
      <trkpt lat="45.39298" lon="4.71349">
        <ele>351.02</ele>
        <time>2022-03-17T09:48:45Z</time>
      </trkpt>
      <trkpt lat="45.393" lon="4.71342">
        <ele>350.54</ele>
        <time>2022-03-17T09:48:51Z</time>
      </trkpt>
      <trkpt lat="45.39312" lon="4.71322">
        <ele>350.54</ele>
        <time>2022-03-17T09:49:09Z</time>
      </trkpt>
      <trkpt lat="45.39323" lon="4.713">
        <ele>351.02</ele>
        <time>2022-03-17T09:49:27Z</time>
      </trkpt>
      <trkpt lat="45.39328" lon="4.71289">
        <ele>351.98</ele>
        <time>2022-03-17T09:49:34Z</time>
      </trkpt>
      <trkpt lat="45.39331" lon="4.71283">
        <ele>351.98</ele>
        <time>2022-03-17T09:49:38Z</time>
      </trkpt>
      <trkpt lat="45.39335" lon="4.71275">
        <ele>351.02</ele>
        <time>2022-03-17T09:49:44Z</time>
      </trkpt>
      <trkpt lat="45.39344" lon="4.71258">
        <ele>351.02</ele>
        <time>2022-03-17T09:49:58Z</time>
      </trkpt>
      <trkpt lat="45.39353" lon="4.71238">
        <ele>351.5</ele>
        <time>2022-03-17T09:50:13Z</time>
      </trkpt>
      <trkpt lat="45.39356" lon="4.71233">
        <ele>351.5</ele>
        <time>2022-03-17T09:50:17Z</time>
      </trkpt>
      <trkpt lat="45.39368" lon="4.71213">
        <ele>351.5</ele>
        <time>2022-03-17T09:50:34Z</time>
      </trkpt>
      <trkpt lat="45.39378" lon="4.71195">
        <ele>351.02</ele>
        <time>2022-03-17T09:50:48Z</time>
      </trkpt>
      <trkpt lat="45.39382" lon="4.71188">
        <ele>351.98</ele>
        <time>2022-03-17T09:50:54Z</time>
      </trkpt>
      <trkpt lat="45.39393" lon="4.71168">
        <ele>351.98</ele>
        <time>2022-03-17T09:51:10Z</time>
      </trkpt>
      <trkpt lat="45.39405" lon="4.71148">
        <ele>351.98</ele>
        <time>2022-03-17T09:51:26Z</time>
      </trkpt>
      <trkpt lat="45.39414" lon="4.7113">
        <ele>351.98</ele>
        <time>2022-03-17T09:51:41Z</time>
      </trkpt>
      <trkpt lat="45.39425" lon="4.71112">
        <ele>351.98</ele>
        <time>2022-03-17T09:51:55Z</time>
      </trkpt>
      <trkpt lat="45.39438" lon="4.71092">
        <ele>352.94</ele>
        <time>2022-03-17T09:52:12Z</time>
      </trkpt>
      <trkpt lat="45.39435" lon="4.71092">
        <ele>352.94</ele>
        <time>2022-03-17T09:52:27Z</time>
      </trkpt>
      <trkpt lat="45.39438" lon="4.71092">
        <ele>352.94</ele>
        <time>2022-03-17T09:52:51Z</time>
      </trkpt>
      <trkpt lat="45.39446" lon="4.71083">
        <ele>352.94</ele>
        <time>2022-03-17T09:53:05Z</time>
      </trkpt>
      <trkpt lat="45.39454" lon="4.71065">
        <ele>353.42</ele>
        <time>2022-03-17T09:53:20Z</time>
      </trkpt>
      <trkpt lat="45.39459" lon="4.71051">
        <ele>355.34</ele>
        <time>2022-03-17T09:53:31Z</time>
      </trkpt>
      <trkpt lat="45.39461" lon="4.71047">
        <ele>353.42</ele>
        <time>2022-03-17T09:53:34Z</time>
      </trkpt>
      <trkpt lat="45.39463" lon="4.71042">
        <ele>355.83</ele>
        <time>2022-03-17T09:53:37Z</time>
      </trkpt>
      <trkpt lat="45.39467" lon="4.71021">
        <ele>354.86</ele>
        <time>2022-03-17T09:53:53Z</time>
      </trkpt>
      <trkpt lat="45.39474" lon="4.71001">
        <ele>356.79</ele>
        <time>2022-03-17T09:54:08Z</time>
      </trkpt>
      <trkpt lat="45.39486" lon="4.70984">
        <ele>355.83</ele>
        <time>2022-03-17T09:54:24Z</time>
      </trkpt>
      <trkpt lat="45.39504" lon="4.70969">
        <ele>355.83</ele>
        <time>2022-03-17T09:54:42Z</time>
      </trkpt>
      <trkpt lat="45.39521" lon="4.70952">
        <ele>354.38</ele>
        <time>2022-03-17T09:54:59Z</time>
      </trkpt>
      <trkpt lat="45.39537" lon="4.70937">
        <ele>355.34</ele>
        <time>2022-03-17T09:55:16Z</time>
      </trkpt>
      <trkpt lat="45.39551" lon="4.70919">
        <ele>355.83</ele>
        <time>2022-03-17T09:55:32Z</time>
      </trkpt>
      <trkpt lat="45.39561" lon="4.70894">
        <ele>356.31</ele>
        <time>2022-03-17T09:55:49Z</time>
      </trkpt>
      <trkpt lat="45.39567" lon="4.70867">
        <ele>355.83</ele>
        <time>2022-03-17T09:56:05Z</time>
      </trkpt>
      <trkpt lat="45.39575" lon="4.70841">
        <ele>357.75</ele>
        <time>2022-03-17T09:56:23Z</time>
      </trkpt>
      <trkpt lat="45.39588" lon="4.70817">
        <ele>357.27</ele>
        <time>2022-03-17T09:56:41Z</time>
      </trkpt>
      <trkpt lat="45.39601" lon="4.70786">
        <ele>357.27</ele>
        <time>2022-03-17T09:57:02Z</time>
      </trkpt>
      <trkpt lat="45.39615" lon="4.70759">
        <ele>356.79</ele>
        <time>2022-03-17T09:57:23Z</time>
      </trkpt>
      <trkpt lat="45.39625" lon="4.70736">
        <ele>357.75</ele>
        <time>2022-03-17T09:57:41Z</time>
      </trkpt>
      <trkpt lat="45.39631" lon="4.70724">
        <ele>357.27</ele>
        <time>2022-03-17T09:57:54Z</time>
      </trkpt>
      <trkpt lat="45.39641" lon="4.70706">
        <ele>357.75</ele>
        <time>2022-03-17T09:58:10Z</time>
      </trkpt>
      <trkpt lat="45.39654" lon="4.70689">
        <ele>358.23</ele>
        <time>2022-03-17T09:58:26Z</time>
      </trkpt>
      <trkpt lat="45.39672" lon="4.70673">
        <ele>357.75</ele>
        <time>2022-03-17T09:58:45Z</time>
      </trkpt>
      <trkpt lat="45.39684" lon="4.70665">
        <ele>359.67</ele>
        <time>2022-03-17T09:59:00Z</time>
      </trkpt>
      <trkpt lat="45.39706" lon="4.70648">
        <ele>358.23</ele>
        <time>2022-03-17T09:59:20Z</time>
      </trkpt>
      <trkpt lat="45.39712" lon="4.70641">
        <ele>356.79</ele>
        <time>2022-03-17T09:59:36Z</time>
      </trkpt>
      <trkpt lat="45.39732" lon="4.7063">
        <ele>358.71</ele>
        <time>2022-03-17T09:59:55Z</time>
      </trkpt>
      <trkpt lat="45.39742" lon="4.70622">
        <ele>359.67</ele>
        <time>2022-03-17T10:00:05Z</time>
      </trkpt>
      <trkpt lat="45.39761" lon="4.70607">
        <ele>360.15</ele>
        <time>2022-03-17T10:00:25Z</time>
      </trkpt>
      <trkpt lat="45.39781" lon="4.70586">
        <ele>361.11</ele>
        <time>2022-03-17T10:00:45Z</time>
      </trkpt>
      <trkpt lat="45.39796" lon="4.70565">
        <ele>361.11</ele>
        <time>2022-03-17T10:01:03Z</time>
      </trkpt>
      <trkpt lat="45.3981" lon="4.70545">
        <ele>361.59</ele>
        <time>2022-03-17T10:01:22Z</time>
      </trkpt>
      <trkpt lat="45.39824" lon="4.70523">
        <ele>362.07</ele>
        <time>2022-03-17T10:01:39Z</time>
      </trkpt>
      <trkpt lat="45.39836" lon="4.70497">
        <ele>362.55</ele>
        <time>2022-03-17T10:01:57Z</time>
      </trkpt>
      <trkpt lat="45.39846" lon="4.70473">
        <ele>362.55</ele>
        <time>2022-03-17T10:02:13Z</time>
      </trkpt>
      <trkpt lat="45.39856" lon="4.70444">
        <ele>362.07</ele>
        <time>2022-03-17T10:02:31Z</time>
      </trkpt>
      <trkpt lat="45.39863" lon="4.70419">
        <ele>362.55</ele>
        <time>2022-03-17T10:02:49Z</time>
      </trkpt>
      <trkpt lat="45.39869" lon="4.70393">
        <ele>362.07</ele>
        <time>2022-03-17T10:03:05Z</time>
      </trkpt>
      <trkpt lat="45.39875" lon="4.70363">
        <ele>362.07</ele>
        <time>2022-03-17T10:03:24Z</time>
      </trkpt>
      <trkpt lat="45.3988" lon="4.70347">
        <ele>362.07</ele>
        <time>2022-03-17T10:03:37Z</time>
      </trkpt>
      <trkpt lat="45.39887" lon="4.70317">
        <ele>362.07</ele>
        <time>2022-03-17T10:03:54Z</time>
      </trkpt>
      <trkpt lat="45.39893" lon="4.7029">
        <ele>362.07</ele>
        <time>2022-03-17T10:04:11Z</time>
      </trkpt>
      <trkpt lat="45.399" lon="4.70259">
        <ele>362.07</ele>
        <time>2022-03-17T10:04:30Z</time>
      </trkpt>
      <trkpt lat="45.39906" lon="4.70232">
        <ele>361.59</ele>
        <time>2022-03-17T10:04:46Z</time>
      </trkpt>
      <trkpt lat="45.39909" lon="4.70213">
        <ele>361.11</ele>
        <time>2022-03-17T10:04:57Z</time>
      </trkpt>
      <trkpt lat="45.39916" lon="4.7018">
        <ele>361.59</ele>
        <time>2022-03-17T10:05:17Z</time>
      </trkpt>
      <trkpt lat="45.39922" lon="4.70149">
        <ele>361.11</ele>
        <time>2022-03-17T10:05:35Z</time>
      </trkpt>
      <trkpt lat="45.39925" lon="4.7012">
        <ele>361.11</ele>
        <time>2022-03-17T10:05:53Z</time>
      </trkpt>
      <trkpt lat="45.39931" lon="4.70089">
        <ele>361.11</ele>
        <time>2022-03-17T10:06:12Z</time>
      </trkpt>
      <trkpt lat="45.39936" lon="4.70057">
        <ele>361.11</ele>
        <time>2022-03-17T10:06:32Z</time>
      </trkpt>
      <trkpt lat="45.39942" lon="4.70035">
        <ele>362.07</ele>
        <time>2022-03-17T10:06:47Z</time>
      </trkpt>
      <trkpt lat="45.39954" lon="4.70002">
        <ele>361.59</ele>
        <time>2022-03-17T10:07:08Z</time>
      </trkpt>
      <trkpt lat="45.39964" lon="4.69976">
        <ele>361.11</ele>
        <time>2022-03-17T10:07:25Z</time>
      </trkpt>
      <trkpt lat="45.39968" lon="4.69967">
        <ele>361.11</ele>
        <time>2022-03-17T10:07:32Z</time>
      </trkpt>
      <trkpt lat="45.39969" lon="4.69963">
        <ele>361.11</ele>
        <time>2022-03-17T10:07:34Z</time>
      </trkpt>
      <trkpt lat="45.39978" lon="4.69935">
        <ele>360.15</ele>
        <time>2022-03-17T10:07:52Z</time>
      </trkpt>
      <trkpt lat="45.39985" lon="4.69906">
        <ele>359.19</ele>
        <time>2022-03-17T10:08:10Z</time>
      </trkpt>
      <trkpt lat="45.39986" lon="4.69879">
        <ele>358.71</ele>
        <time>2022-03-17T10:08:28Z</time>
      </trkpt>
      <trkpt lat="45.39985" lon="4.69872">
        <ele>358.23</ele>
        <time>2022-03-17T10:08:33Z</time>
      </trkpt>
      <trkpt lat="45.39979" lon="4.69853">
        <ele>358.23</ele>
        <time>2022-03-17T10:08:45Z</time>
      </trkpt>
      <trkpt lat="45.39962" lon="4.69823">
        <ele>357.75</ele>
        <time>2022-03-17T10:09:08Z</time>
      </trkpt>
      <trkpt lat="45.39959" lon="4.69793">
        <ele>357.75</ele>
        <time>2022-03-17T10:09:26Z</time>
      </trkpt>
      <trkpt lat="45.39961" lon="4.69782">
        <ele>358.23</ele>
        <time>2022-03-17T10:09:33Z</time>
      </trkpt>
      <trkpt lat="45.39971" lon="4.69759">
        <ele>359.67</ele>
        <time>2022-03-17T10:09:50Z</time>
      </trkpt>
      <trkpt lat="45.39979" lon="4.69738">
        <ele>361.11</ele>
        <time>2022-03-17T10:10:07Z</time>
      </trkpt>
      <trkpt lat="45.39992" lon="4.69712">
        <ele>363.52</ele>
        <time>2022-03-17T10:10:28Z</time>
      </trkpt>
      <trkpt lat="45.39996" lon="4.69703">
        <ele>364</ele>
        <time>2022-03-17T10:10:35Z</time>
      </trkpt>
      <trkpt lat="45.40002" lon="4.69683">
        <ele>364.48</ele>
        <time>2022-03-17T10:10:52Z</time>
      </trkpt>
      <trkpt lat="45.4001" lon="4.6966">
        <ele>365.44</ele>
        <time>2022-03-17T10:11:09Z</time>
      </trkpt>
      <trkpt lat="45.40016" lon="4.69638">
        <ele>366.88</ele>
        <time>2022-03-17T10:11:25Z</time>
      </trkpt>
      <trkpt lat="45.40021" lon="4.69631">
        <ele>367.84</ele>
        <time>2022-03-17T10:11:40Z</time>
      </trkpt>
      <trkpt lat="45.40024" lon="4.69617">
        <ele>369.28</ele>
        <time>2022-03-17T10:11:51Z</time>
      </trkpt>
      <trkpt lat="45.4003" lon="4.69591">
        <ele>370.73</ele>
        <time>2022-03-17T10:12:09Z</time>
      </trkpt>
      <trkpt lat="45.40039" lon="4.69567">
        <ele>372.17</ele>
        <time>2022-03-17T10:12:28Z</time>
      </trkpt>
      <trkpt lat="45.40046" lon="4.69546">
        <ele>373.13</ele>
        <time>2022-03-17T10:12:45Z</time>
      </trkpt>
      <trkpt lat="45.40053" lon="4.69522">
        <ele>374.57</ele>
        <time>2022-03-17T10:13:02Z</time>
      </trkpt>
      <trkpt lat="45.40057" lon="4.69501">
        <ele>377.94</ele>
        <time>2022-03-17T10:13:18Z</time>
      </trkpt>
      <trkpt lat="45.40062" lon="4.69475">
        <ele>379.38</ele>
        <time>2022-03-17T10:13:37Z</time>
      </trkpt>
      <trkpt lat="45.40066" lon="4.69454">
        <ele>381.78</ele>
        <time>2022-03-17T10:13:53Z</time>
      </trkpt>
      <trkpt lat="45.4007" lon="4.69429">
        <ele>383.7</ele>
        <time>2022-03-17T10:14:10Z</time>
      </trkpt>
      <trkpt lat="45.40073" lon="4.69408">
        <ele>386.11</ele>
        <time>2022-03-17T10:14:26Z</time>
      </trkpt>
      <trkpt lat="45.40077" lon="4.69388">
        <ele>387.07</ele>
        <time>2022-03-17T10:14:43Z</time>
      </trkpt>
      <trkpt lat="45.40078" lon="4.69384">
        <ele>388.03</ele>
        <time>2022-03-17T10:14:58Z</time>
      </trkpt>
      <trkpt lat="45.4008" lon="4.69378">
        <ele>388.51</ele>
        <time>2022-03-17T10:15:13Z</time>
      </trkpt>
      <trkpt lat="45.40077" lon="4.69375">
        <ele>388.51</ele>
        <time>2022-03-17T10:15:33Z</time>
      </trkpt>
      <trkpt lat="45.40075" lon="4.69372">
        <ele>388.51</ele>
        <time>2022-03-17T10:15:37Z</time>
      </trkpt>
      <trkpt lat="45.4007" lon="4.69357">
        <ele>388.99</ele>
        <time>2022-03-17T10:15:53Z</time>
      </trkpt>
      <trkpt lat="45.40067" lon="4.69352">
        <ele>390.43</ele>
        <time>2022-03-17T10:16:12Z</time>
      </trkpt>
      <trkpt lat="45.40067" lon="4.69346">
        <ele>390.43</ele>
        <time>2022-03-17T10:16:16Z</time>
      </trkpt>
      <trkpt lat="45.4006" lon="4.69318">
        <ele>392.36</ele>
        <time>2022-03-17T10:16:36Z</time>
      </trkpt>
      <trkpt lat="45.40056" lon="4.69296">
        <ele>393.8</ele>
        <time>2022-03-17T10:16:50Z</time>
      </trkpt>
      <trkpt lat="45.40053" lon="4.69278">
        <ele>396.2</ele>
        <time>2022-03-17T10:17:02Z</time>
      </trkpt>
      <trkpt lat="45.40046" lon="4.69254">
        <ele>396.68</ele>
        <time>2022-03-17T10:17:19Z</time>
      </trkpt>
      <trkpt lat="45.40038" lon="4.69229">
        <ele>398.12</ele>
        <time>2022-03-17T10:17:38Z</time>
      </trkpt>
      <trkpt lat="45.40032" lon="4.69207">
        <ele>400.05</ele>
        <time>2022-03-17T10:17:54Z</time>
      </trkpt>
      <trkpt lat="45.40025" lon="4.69186">
        <ele>401.97</ele>
        <time>2022-03-17T10:18:11Z</time>
      </trkpt>
      <trkpt lat="45.40017" lon="4.69172">
        <ele>403.41</ele>
        <time>2022-03-17T10:18:29Z</time>
      </trkpt>
      <trkpt lat="45.40013" lon="4.69173">
        <ele>403.89</ele>
        <time>2022-03-17T10:18:46Z</time>
      </trkpt>
      <trkpt lat="45.40003" lon="4.69177">
        <ele>402.93</ele>
        <time>2022-03-17T10:18:59Z</time>
      </trkpt>
      <trkpt lat="45.39999" lon="4.6918">
        <ele>402.45</ele>
        <time>2022-03-17T10:19:18Z</time>
      </trkpt>
      <trkpt lat="45.39997" lon="4.6918">
        <ele>402.45</ele>
        <time>2022-03-17T10:19:35Z</time>
      </trkpt>
      <trkpt lat="45.39992" lon="4.69183">
        <ele>401.97</ele>
        <time>2022-03-17T10:19:50Z</time>
      </trkpt>
      <trkpt lat="45.39985" lon="4.69184">
        <ele>401.49</ele>
        <time>2022-03-17T10:20:09Z</time>
      </trkpt>
      <trkpt lat="45.39976" lon="4.69194">
        <ele>401.01</ele>
        <time>2022-03-17T10:20:28Z</time>
      </trkpt>
      <trkpt lat="45.39961" lon="4.69208">
        <ele>399.57</ele>
        <time>2022-03-17T10:20:47Z</time>
      </trkpt>
      <trkpt lat="45.39942" lon="4.69219">
        <ele>399.57</ele>
        <time>2022-03-17T10:21:05Z</time>
      </trkpt>
      <trkpt lat="45.39932" lon="4.69227">
        <ele>399.08</ele>
        <time>2022-03-17T10:21:21Z</time>
      </trkpt>
      <trkpt lat="45.39917" lon="4.69232">
        <ele>398.12</ele>
        <time>2022-03-17T10:21:36Z</time>
      </trkpt>
      <trkpt lat="45.39901" lon="4.69228">
        <ele>396.68</ele>
        <time>2022-03-17T10:21:52Z</time>
      </trkpt>
      <trkpt lat="45.39893" lon="4.69227">
        <ele>395.72</ele>
        <time>2022-03-17T10:21:59Z</time>
      </trkpt>
      <trkpt lat="45.39876" lon="4.69226">
        <ele>394.28</ele>
        <time>2022-03-17T10:22:15Z</time>
      </trkpt>
      <trkpt lat="45.39856" lon="4.69222">
        <ele>392.84</ele>
        <time>2022-03-17T10:22:32Z</time>
      </trkpt>
      <trkpt lat="45.39849" lon="4.6922">
        <ele>392.36</ele>
        <time>2022-03-17T10:22:37Z</time>
      </trkpt>
      <trkpt lat="45.39838" lon="4.69219">
        <ele>390.91</ele>
        <time>2022-03-17T10:22:47Z</time>
      </trkpt>
      <trkpt lat="45.39821" lon="4.69216">
        <ele>388.99</ele>
        <time>2022-03-17T10:23:04Z</time>
      </trkpt>
      <trkpt lat="45.398" lon="4.6922">
        <ele>388.51</ele>
        <time>2022-03-17T10:23:22Z</time>
      </trkpt>
      <trkpt lat="45.39777" lon="4.69223">
        <ele>388.51</ele>
        <time>2022-03-17T10:23:39Z</time>
      </trkpt>
      <trkpt lat="45.39776" lon="4.69223">
        <ele>388.03</ele>
        <time>2022-03-17T10:23:40Z</time>
      </trkpt>
      <trkpt lat="45.39752" lon="4.69223">
        <ele>389.47</ele>
        <time>2022-03-17T10:24:01Z</time>
      </trkpt>
      <trkpt lat="45.3973" lon="4.69227">
        <ele>389.47</ele>
        <time>2022-03-17T10:24:20Z</time>
      </trkpt>
      <trkpt lat="45.39707" lon="4.69235">
        <ele>388.99</ele>
        <time>2022-03-17T10:24:39Z</time>
      </trkpt>
      <trkpt lat="45.39684" lon="4.69242">
        <ele>390.43</ele>
        <time>2022-03-17T10:24:57Z</time>
      </trkpt>
      <trkpt lat="45.39672" lon="4.69247">
        <ele>390.91</ele>
        <time>2022-03-17T10:25:08Z</time>
      </trkpt>
      <trkpt lat="45.3965" lon="4.69257">
        <ele>390.91</ele>
        <time>2022-03-17T10:25:29Z</time>
      </trkpt>
      <trkpt lat="45.39626" lon="4.69273">
        <ele>390.91</ele>
        <time>2022-03-17T10:25:49Z</time>
      </trkpt>
      <trkpt lat="45.39606" lon="4.69286">
        <ele>389.95</ele>
        <time>2022-03-17T10:26:07Z</time>
      </trkpt>
      <trkpt lat="45.39587" lon="4.69292">
        <ele>390.43</ele>
        <time>2022-03-17T10:26:25Z</time>
      </trkpt>
      <trkpt lat="45.39572" lon="4.69297">
        <ele>390.91</ele>
        <time>2022-03-17T10:26:40Z</time>
      </trkpt>
      <trkpt lat="45.39549" lon="4.69304">
        <ele>392.84</ele>
        <time>2022-03-17T10:26:59Z</time>
      </trkpt>
      <trkpt lat="45.39529" lon="4.69309">
        <ele>394.28</ele>
        <time>2022-03-17T10:27:18Z</time>
      </trkpt>
      <trkpt lat="45.39503" lon="4.69318">
        <ele>396.2</ele>
        <time>2022-03-17T10:27:39Z</time>
      </trkpt>
      <trkpt lat="45.39484" lon="4.6932">
        <ele>396.2</ele>
        <time>2022-03-17T10:27:56Z</time>
      </trkpt>
      <trkpt lat="45.39477" lon="4.69325">
        <ele>397.16</ele>
        <time>2022-03-17T10:28:10Z</time>
      </trkpt>
      <trkpt lat="45.39458" lon="4.69324">
        <ele>397.64</ele>
        <time>2022-03-17T10:28:28Z</time>
        <extensions>
          <visugpx:TrkExtension xmlns:visugpx="https://www.visugpx.com/editgpx/">
            <visugpx:node>1</visugpx:node>
            </visugpx:TrkExtension>
        </extensions>
      </trkpt>
      <trkpt lat="45.39452" lon="4.69319">
        <ele>394.1</ele>
      </trkpt>
      <trkpt lat="45.39436" lon="4.69318">
        <ele>394.7</ele>
      </trkpt>
      <trkpt lat="45.3943" lon="4.69314">
        <ele>394.9</ele>
      </trkpt>
      <trkpt lat="45.39431" lon="4.69344">
        <ele>394.5</ele>
      </trkpt>
      <trkpt lat="45.39439" lon="4.6939">
        <ele>393.2</ele>
      </trkpt>
      <trkpt lat="45.39444" lon="4.69437">
        <ele>392.3</ele>
      </trkpt>
      <trkpt lat="45.39449" lon="4.69454">
        <ele>391.9</ele>
      </trkpt>
      <trkpt lat="45.3945" lon="4.69463">
        <ele>391.9</ele>
        <extensions>
          <visugpx:TrkExtension xmlns:visugpx="https://www.visugpx.com/editgpx/">
            <visugpx:node>2</visugpx:node>
            </visugpx:TrkExtension>
        </extensions>
      </trkpt>
      <trkpt lat="45.39454" lon="4.69508">
        <ele>391.3</ele>
      </trkpt>
      <trkpt lat="45.39457" lon="4.69547">
        <ele>390.4</ele>
      </trkpt>
      <trkpt lat="45.3946" lon="4.69598">
        <ele>388.4</ele>
      </trkpt>
      <trkpt lat="45.39458" lon="4.69627">
        <ele>387.5</ele>
      </trkpt>
      <trkpt lat="45.39451" lon="4.69663">
        <ele>386.7</ele>
      </trkpt>
      <trkpt lat="45.39426" lon="4.69731">
        <ele>386</ele>
      </trkpt>
      <trkpt lat="45.39421" lon="4.69752">
        <ele>385.6</ele>
      </trkpt>
      <trkpt lat="45.39418" lon="4.69761">
        <ele>385.5</ele>
      </trkpt>
      <trkpt lat="45.39414" lon="4.69787">
        <ele>385.1</ele>
      </trkpt>
      <trkpt lat="45.39407" lon="4.69835">
        <ele>384.3</ele>
      </trkpt>
      <trkpt lat="45.39393" lon="4.69905">
        <ele>384.5</ele>
      </trkpt>
      <trkpt lat="45.39386" lon="4.69929">
        <ele>383.8</ele>
      </trkpt>
      <trkpt lat="45.39378" lon="4.69948">
        <ele>383.2</ele>
      </trkpt>
      <trkpt lat="45.39372" lon="4.69966">
        <ele>381.9</ele>
        <extensions>
          <visugpx:TrkExtension xmlns:visugpx="https://www.visugpx.com/editgpx/">
            <visugpx:node>4</visugpx:node>
            </visugpx:TrkExtension>
        </extensions>
      </trkpt>
      <trkpt lat="45.39371" lon="4.69968">
        <ele>381.7</ele>
      </trkpt>
      <trkpt lat="45.39368" lon="4.69985">
        <ele>380.1</ele>
      </trkpt>
      <trkpt lat="45.39366" lon="4.70005">
        <ele>378.2</ele>
      </trkpt>
      <trkpt lat="45.39367" lon="4.70037">
        <ele>376</ele>
      </trkpt>
      <trkpt lat="45.39338" lon="4.70089">
        <ele>372</ele>
      </trkpt>
      <trkpt lat="45.39311" lon="4.70133">
        <ele>369.6</ele>
      </trkpt>
      <trkpt lat="45.39295" lon="4.70165">
        <ele>368.1</ele>
      </trkpt>
      <trkpt lat="45.39285" lon="4.70187">
        <ele>367.8</ele>
        <extensions>
          <visugpx:TrkExtension xmlns:visugpx="https://www.visugpx.com/editgpx/">
            <visugpx:node>5</visugpx:node>
            </visugpx:TrkExtension>
        </extensions>
      </trkpt>
      <trkpt lat="45.39281" lon="4.70194">
        <ele>367.9</ele>
      </trkpt>
      <trkpt lat="45.3926" lon="4.70246">
        <ele>366.1</ele>
      </trkpt>
      <trkpt lat="45.39252" lon="4.70268">
        <ele>365.4</ele>
      </trkpt>
      <trkpt lat="45.39234" lon="4.70315">
        <ele>364.4</ele>
      </trkpt>
      <trkpt lat="45.39206" lon="4.70377">
        <ele>363.8</ele>
      </trkpt>
      <trkpt lat="45.39198" lon="4.70396">
        <ele>363.6</ele>
      </trkpt>
      <trkpt lat="45.3916" lon="4.70493">
        <ele>361.2</ele>
      </trkpt>
      <trkpt lat="45.39146" lon="4.70527">
        <ele>361</ele>
      </trkpt>
      <trkpt lat="45.39137" lon="4.70545">
        <ele>360.9</ele>
      </trkpt>
      <trkpt lat="45.39128" lon="4.70556">
        <ele>360.6</ele>
      </trkpt>
      <trkpt lat="45.39119" lon="4.70566">
        <ele>360.6</ele>
      </trkpt>
      <trkpt lat="45.3911" lon="4.70573">
        <ele>360.6</ele>
      </trkpt>
      <trkpt lat="45.39104" lon="4.70576">
        <ele>360.3</ele>
      </trkpt>
      <trkpt lat="45.39099" lon="4.70578">
        <ele>360</ele>
      </trkpt>
      <trkpt lat="45.39085" lon="4.70579">
        <ele>359.1</ele>
      </trkpt>
      <trkpt lat="45.39084" lon="4.70579">
        <ele>359</ele>
        <extensions>
          <visugpx:TrkExtension xmlns:visugpx="https://www.visugpx.com/editgpx/">
            <visugpx:node>6</visugpx:node>
            </visugpx:TrkExtension>
        </extensions>
      </trkpt>
      <trkpt lat="45.39081" lon="4.7058">
        <ele>358.8</ele>
      </trkpt>
      <trkpt lat="45.39076" lon="4.70584">
        <ele>358.5</ele>
      </trkpt>
      <trkpt lat="45.39072" lon="4.70589">
        <ele>358.1</ele>
      </trkpt>
      <trkpt lat="45.39067" lon="4.70595">
        <ele>357.6</ele>
      </trkpt>
      <trkpt lat="45.39057" lon="4.70613">
        <ele>356.2</ele>
      </trkpt>
      <trkpt lat="45.39044" lon="4.70637">
        <ele>355.2</ele>
      </trkpt>
      <trkpt lat="45.39033" lon="4.70661">
        <ele>354.2</ele>
      </trkpt>
      <trkpt lat="45.39022" lon="4.70696">
        <ele>353.6</ele>
      </trkpt>
      <trkpt lat="45.39017" lon="4.70703">
        <ele>353.2</ele>
      </trkpt>
      <trkpt lat="45.39011" lon="4.70713">
        <ele>352.8</ele>
      </trkpt>
      <trkpt lat="45.39003" lon="4.70693">
        <ele>352.3</ele>
        <extensions>
          <visugpx:TrkExtension xmlns:visugpx="https://www.visugpx.com/editgpx/">
            <visugpx:node>7</visugpx:node>
            </visugpx:TrkExtension>
        </extensions>
      </trkpt>
      <trkpt lat="45.38982" lon="4.70621">
        <ele>352.7</ele>
      </trkpt>
      <trkpt lat="45.38976" lon="4.70597">
        <ele>352.3</ele>
      </trkpt>
      <trkpt lat="45.3897" lon="4.70568">
        <ele>351.9</ele>
      </trkpt>
      <trkpt lat="45.38961" lon="4.70525">
        <ele>350.8</ele>
      </trkpt>
      <trkpt lat="45.38959" lon="4.70482">
        <ele>350</ele>
      </trkpt>
      <trkpt lat="45.38958" lon="4.7047">
        <ele>349.4</ele>
      </trkpt>
      <trkpt lat="45.38957" lon="4.70458">
        <ele>348.7</ele>
      </trkpt>
      <trkpt lat="45.38958" lon="4.70436">
        <ele>347.8</ele>
      </trkpt>
      <trkpt lat="45.38964" lon="4.70408">
        <ele>346.8</ele>
      </trkpt>
      <trkpt lat="45.38968" lon="4.70397">
        <ele>347</ele>
      </trkpt>
      <trkpt lat="45.38974" lon="4.70374">
        <ele>346.4</ele>
      </trkpt>
      <trkpt lat="45.38981" lon="4.70352">
        <ele>345.8</ele>
      </trkpt>
      <trkpt lat="45.38982" lon="4.70348">
        <ele>345.7</ele>
      </trkpt>
      <trkpt lat="45.38986" lon="4.70325">
        <ele>344.9</ele>
        <extensions>
          <visugpx:TrkExtension xmlns:visugpx="https://www.visugpx.com/editgpx/">
            <visugpx:node>8</visugpx:node>
            </visugpx:TrkExtension>
        </extensions>
      </trkpt>
      <trkpt lat="45.38987" lon="4.70321">
        <ele>345</ele>
      </trkpt>
      <trkpt lat="45.38986" lon="4.70306">
        <ele>343.5</ele>
      </trkpt>
      <trkpt lat="45.38978" lon="4.70279">
        <ele>338.7</ele>
      </trkpt>
      <trkpt lat="45.38972" lon="4.70265">
        <ele>337.4</ele>
      </trkpt>
      <trkpt lat="45.38967" lon="4.7025">
        <ele>335.7</ele>
      </trkpt>
      <trkpt lat="45.38961" lon="4.70236">
        <ele>332.4</ele>
      </trkpt>
      <trkpt lat="45.38959" lon="4.70228">
        <ele>331.1</ele>
      </trkpt>
      <trkpt lat="45.38959" lon="4.70218">
        <ele>330.3</ele>
      </trkpt>
      <trkpt lat="45.38962" lon="4.702">
        <ele>329.1</ele>
      </trkpt>
      <trkpt lat="45.38962" lon="4.70186">
        <ele>328.2</ele>
      </trkpt>
      <trkpt lat="45.38961" lon="4.70181">
        <ele>327.9</ele>
      </trkpt>
      <trkpt lat="45.38953" lon="4.70162">
        <ele>325.8</ele>
      </trkpt>
      <trkpt lat="45.38949" lon="4.70155">
        <ele>325.3</ele>
      </trkpt>
      <trkpt lat="45.38945" lon="4.7015">
        <ele>324.9</ele>
      </trkpt>
      <trkpt lat="45.3894" lon="4.70146">
        <ele>325.2</ele>
      </trkpt>
      <trkpt lat="45.38938" lon="4.70145">
        <ele>325.3</ele>
      </trkpt>
      <trkpt lat="45.38936" lon="4.70144">
        <ele>325.3</ele>
      </trkpt>
      <trkpt lat="45.38933" lon="4.70144">
        <ele>325.3</ele>
      </trkpt>
      <trkpt lat="45.3893" lon="4.70144">
        <ele>325.2</ele>
      </trkpt>
      <trkpt lat="45.38929" lon="4.70144">
        <ele>325.2</ele>
      </trkpt>
      <trkpt lat="45.38927" lon="4.70144">
        <ele>325.2</ele>
      </trkpt>
      <trkpt lat="45.38921" lon="4.70145">
        <ele>325.1</ele>
      </trkpt>
      <trkpt lat="45.38917" lon="4.70148">
        <ele>325</ele>
      </trkpt>
      <trkpt lat="45.38913" lon="4.70151">
        <ele>326.1</ele>
      </trkpt>
      <trkpt lat="45.38908" lon="4.7016">
        <ele>327.7</ele>
      </trkpt>
      <trkpt lat="45.38905" lon="4.70168">
        <ele>328.7</ele>
      </trkpt>
      <trkpt lat="45.38901" lon="4.70178">
        <ele>329.4</ele>
      </trkpt>
      <trkpt lat="45.38898" lon="4.70194">
        <ele>329.4</ele>
      </trkpt>
      <trkpt lat="45.38895" lon="4.70205">
        <ele>329.2</ele>
      </trkpt>
      <trkpt lat="45.38887" lon="4.70229">
        <ele>329.5</ele>
      </trkpt>
      <trkpt lat="45.3888" lon="4.70245">
        <ele>331.6</ele>
      </trkpt>
      <trkpt lat="45.38878" lon="4.70249">
        <ele>332.2</ele>
      </trkpt>
      <trkpt lat="45.38875" lon="4.70252">
        <ele>333.3</ele>
      </trkpt>
      <trkpt lat="45.38868" lon="4.70257">
        <ele>336.1</ele>
      </trkpt>
      <trkpt lat="45.38861" lon="4.70261">
        <ele>338.8</ele>
      </trkpt>
      <trkpt lat="45.38847" lon="4.70265">
        <ele>340.6</ele>
      </trkpt>
      <trkpt lat="45.38835" lon="4.70266">
        <ele>342.4</ele>
      </trkpt>
      <trkpt lat="45.3883" lon="4.70264">
        <ele>342.6</ele>
      </trkpt>
      <trkpt lat="45.38823" lon="4.70259">
        <ele>342.7</ele>
      </trkpt>
      <trkpt lat="45.38796" lon="4.7024">
        <ele>344.8</ele>
      </trkpt>
      <trkpt lat="45.38768" lon="4.70221">
        <ele>348.2</ele>
      </trkpt>
      <trkpt lat="45.38761" lon="4.70215">
        <ele>349.4</ele>
        <extensions>
          <visugpx:TrkExtension xmlns:visugpx="https://www.visugpx.com/editgpx/">
            <visugpx:node>9</visugpx:node>
            </visugpx:TrkExtension>
        </extensions>
      </trkpt>
      <trkpt lat="45.38667" lon="4.70192">
        <ele>359.67</ele>
        <time>2022-03-17T13:17:07Z</time>
      </trkpt>
      <trkpt lat="45.38674" lon="4.70211">
        <ele>359.19</ele>
        <time>2022-03-17T13:17:23Z</time>
      </trkpt>
      <trkpt lat="45.38678" lon="4.70211">
        <ele>358.71</ele>
        <time>2022-03-17T13:17:40Z</time>
      </trkpt>
      <trkpt lat="45.38676" lon="4.7021">
        <ele>358.71</ele>
        <time>2022-03-17T13:18:08Z</time>
      </trkpt>
      <trkpt lat="45.38678" lon="4.70213">
        <ele>358.71</ele>
        <time>2022-03-17T13:18:21Z</time>
      </trkpt>
      <trkpt lat="45.38683" lon="4.70229">
        <ele>357.27</ele>
        <time>2022-03-17T13:18:36Z</time>
      </trkpt>
      <trkpt lat="45.38686" lon="4.70239">
        <ele>355.83</ele>
        <time>2022-03-17T13:18:47Z</time>
      </trkpt>
      <trkpt lat="45.3869" lon="4.70249">
        <ele>356.79</ele>
        <time>2022-03-17T13:18:53Z</time>
      </trkpt>
      <trkpt lat="45.38702" lon="4.70276">
        <ele>353.9</ele>
        <time>2022-03-17T13:19:11Z</time>
      </trkpt>
      <trkpt lat="45.38712" lon="4.70288">
        <ele>351.5</ele>
        <time>2022-03-17T13:19:23Z</time>
      </trkpt>
      <trkpt lat="45.38723" lon="4.70302">
        <ele>349.58</ele>
        <time>2022-03-17T13:19:39Z</time>
      </trkpt>
      <trkpt lat="45.3873" lon="4.70313">
        <ele>347.17</ele>
        <time>2022-03-17T13:19:52Z</time>
      </trkpt>
      <trkpt lat="45.3874" lon="4.70328">
        <ele>343.81</ele>
        <time>2022-03-17T13:20:07Z</time>
      </trkpt>
      <trkpt lat="45.3875" lon="4.70345">
        <ele>341.41</ele>
        <time>2022-03-17T13:20:23Z</time>
      </trkpt>
      <trkpt lat="45.38759" lon="4.70363">
        <ele>339</ele>
        <time>2022-03-17T13:20:40Z</time>
      </trkpt>
      <trkpt lat="45.38768" lon="4.70376">
        <ele>336.12</ele>
        <time>2022-03-17T13:20:55Z</time>
      </trkpt>
      <trkpt lat="45.38778" lon="4.70391">
        <ele>333.71</ele>
        <time>2022-03-17T13:21:11Z</time>
      </trkpt>
      <trkpt lat="45.38786" lon="4.70404">
        <ele>330.83</ele>
        <time>2022-03-17T13:21:25Z</time>
      </trkpt>
      <trkpt lat="45.38794" lon="4.70419">
        <ele>328.43</ele>
        <time>2022-03-17T13:21:39Z</time>
      </trkpt>
      <trkpt lat="45.38794" lon="4.70439">
        <ele>325.54</ele>
        <time>2022-03-17T13:21:55Z</time>
      </trkpt>
      <trkpt lat="45.38793" lon="4.7046">
        <ele>323.14</ele>
        <time>2022-03-17T13:22:10Z</time>
      </trkpt>
      <trkpt lat="45.38789" lon="4.70478">
        <ele>319.78</ele>
        <time>2022-03-17T13:22:24Z</time>
      </trkpt>
      <trkpt lat="45.38787" lon="4.70491">
        <ele>317.37</ele>
        <time>2022-03-17T13:22:37Z</time>
      </trkpt>
      <trkpt lat="45.38785" lon="4.70508">
        <ele>314.01</ele>
        <time>2022-03-17T13:22:50Z</time>
      </trkpt>
      <trkpt lat="45.38787" lon="4.70536">
        <ele>311.12</ele>
        <time>2022-03-17T13:23:04Z</time>
      </trkpt>
      <trkpt lat="45.38791" lon="4.70554">
        <ele>308.72</ele>
        <time>2022-03-17T13:23:18Z</time>
      </trkpt>
      <trkpt lat="45.38793" lon="4.70563">
        <ele>308.24</ele>
        <time>2022-03-17T13:23:42Z</time>
      </trkpt>
      <trkpt lat="45.38791" lon="4.70553">
        <ele>308.72</ele>
        <time>2022-03-17T13:24:04Z</time>
      </trkpt>
      <trkpt lat="45.38787" lon="4.70554">
        <ele>308.24</ele>
        <time>2022-03-17T13:24:27Z</time>
      </trkpt>
      <trkpt lat="45.38793" lon="4.70567">
        <ele>307.76</ele>
        <time>2022-03-17T13:24:56Z</time>
      </trkpt>
      <trkpt lat="45.38786" lon="4.70579">
        <ele>306.8</ele>
        <time>2022-03-17T13:25:17Z</time>
      </trkpt>
      <trkpt lat="45.38783" lon="4.70584">
        <ele>306.8</ele>
        <time>2022-03-17T13:25:35Z</time>
      </trkpt>
      <trkpt lat="45.38779" lon="4.70562">
        <ele>306.8</ele>
        <time>2022-03-17T13:26:10Z</time>
      </trkpt>
      <trkpt lat="45.38777" lon="4.70562">
        <ele>306.8</ele>
        <time>2022-03-17T13:26:48Z</time>
      </trkpt>
      <trkpt lat="45.38769" lon="4.70549">
        <ele>306.8</ele>
        <time>2022-03-17T13:27:27Z</time>
      </trkpt>
      <trkpt lat="45.3876" lon="4.70569">
        <ele>306.8</ele>
        <time>2022-03-17T13:27:44Z</time>
      </trkpt>
      <trkpt lat="45.38751" lon="4.70601">
        <ele>306.8</ele>
        <time>2022-03-17T13:28:04Z</time>
      </trkpt>
      <trkpt lat="45.3875" lon="4.70634">
        <ele>306.8</ele>
        <time>2022-03-17T13:28:22Z</time>
      </trkpt>
      <trkpt lat="45.38736" lon="4.70653">
        <ele>303.91</ele>
        <time>2022-03-17T13:28:39Z</time>
      </trkpt>
      <trkpt lat="45.38728" lon="4.70672">
        <ele>303.43</ele>
        <time>2022-03-17T13:28:58Z</time>
      </trkpt>
      <trkpt lat="45.38714" lon="4.70693">
        <ele>301.99</ele>
        <time>2022-03-17T13:29:15Z</time>
      </trkpt>
      <trkpt lat="45.38708" lon="4.70708">
        <ele>301.03</ele>
        <time>2022-03-17T13:29:29Z</time>
      </trkpt>
      <trkpt lat="45.38704" lon="4.70727">
        <ele>301.51</ele>
        <time>2022-03-17T13:29:42Z</time>
      </trkpt>
      <trkpt lat="45.38707" lon="4.70753">
        <ele>299.59</ele>
        <time>2022-03-17T13:30:02Z</time>
      </trkpt>
      <trkpt lat="45.38704" lon="4.70778">
        <ele>300.07</ele>
        <time>2022-03-17T13:30:16Z</time>
      </trkpt>
      <trkpt lat="45.38706" lon="4.7079">
        <ele>300.55</ele>
        <time>2022-03-17T13:30:34Z</time>
      </trkpt>
      <trkpt lat="45.38708" lon="4.70802">
        <ele>300.07</ele>
        <time>2022-03-17T13:30:51Z</time>
      </trkpt>
      <trkpt lat="45.38707" lon="4.70806">
        <ele>299.59</ele>
        <time>2022-03-17T13:30:56Z</time>
      </trkpt>
      <trkpt lat="45.38704" lon="4.70828">
        <ele>299.59</ele>
        <time>2022-03-17T13:31:08Z</time>
      </trkpt>
      <trkpt lat="45.38704" lon="4.70852">
        <ele>299.59</ele>
        <time>2022-03-17T13:31:23Z</time>
      </trkpt>
      <trkpt lat="45.38702" lon="4.7087">
        <ele>298.63</ele>
        <time>2022-03-17T13:31:40Z</time>
      </trkpt>
      <trkpt lat="45.38697" lon="4.70889">
        <ele>296.22</ele>
        <time>2022-03-17T13:32:01Z</time>
      </trkpt>
      <trkpt lat="45.38692" lon="4.70912">
        <ele>295.74</ele>
        <time>2022-03-17T13:32:19Z</time>
      </trkpt>
      <trkpt lat="45.3868" lon="4.70923">
        <ele>294.3</ele>
        <time>2022-03-17T13:32:36Z</time>
      </trkpt>
      <trkpt lat="45.38671" lon="4.70939">
        <ele>293.82</ele>
        <time>2022-03-17T13:32:53Z</time>
      </trkpt>
      <trkpt lat="45.38661" lon="4.7095">
        <ele>292.86</ele>
        <time>2022-03-17T13:33:09Z</time>
      </trkpt>
      <trkpt lat="45.38653" lon="4.70971">
        <ele>291.9</ele>
        <time>2022-03-17T13:33:27Z</time>
      </trkpt>
      <trkpt lat="45.38639" lon="4.70989">
        <ele>291.42</ele>
        <time>2022-03-17T13:33:43Z</time>
      </trkpt>
      <trkpt lat="45.38611" lon="4.71007">
        <ele>289.97</ele>
        <time>2022-03-17T13:34:00Z</time>
      </trkpt>
      <trkpt lat="45.38601" lon="4.71039">
        <ele>288.53</ele>
        <time>2022-03-17T13:34:18Z</time>
      </trkpt>
      <trkpt lat="45.386" lon="4.71064">
        <ele>288.05</ele>
        <time>2022-03-17T13:34:33Z</time>
      </trkpt>
      <trkpt lat="45.38595" lon="4.71085">
        <ele>287.57</ele>
        <time>2022-03-17T13:34:54Z</time>
      </trkpt>
      <trkpt lat="45.38592" lon="4.71107">
        <ele>286.61</ele>
        <time>2022-03-17T13:35:11Z</time>
      </trkpt>
      <trkpt lat="45.38596" lon="4.71133">
        <ele>286.13</ele>
        <time>2022-03-17T13:35:26Z</time>
      </trkpt>
      <trkpt lat="45.38606" lon="4.71157">
        <ele>286.13</ele>
        <time>2022-03-17T13:35:46Z</time>
      </trkpt>
      <trkpt lat="45.38616" lon="4.71179">
        <ele>285.65</ele>
        <time>2022-03-17T13:36:02Z</time>
      </trkpt>
      <trkpt lat="45.38627" lon="4.71193">
        <ele>283.73</ele>
        <time>2022-03-17T13:36:15Z</time>
      </trkpt>
      <trkpt lat="45.38633" lon="4.71207">
        <ele>283.25</ele>
        <time>2022-03-17T13:36:30Z</time>
      </trkpt>
      <trkpt lat="45.38647" lon="4.71226">
        <ele>282.28</ele>
        <time>2022-03-17T13:36:48Z</time>
      </trkpt>
      <trkpt lat="45.38652" lon="4.71244">
        <ele>283.25</ele>
        <time>2022-03-17T13:37:05Z</time>
      </trkpt>
      <trkpt lat="45.38669" lon="4.71273">
        <ele>282.77</ele>
        <time>2022-03-17T13:37:22Z</time>
      </trkpt>
      <trkpt lat="45.38671" lon="4.71291">
        <ele>281.8</ele>
        <time>2022-03-17T13:37:39Z</time>
      </trkpt>
      <trkpt lat="45.38658" lon="4.71298">
        <ele>280.36</ele>
        <time>2022-03-17T13:37:54Z</time>
      </trkpt>
      <trkpt lat="45.38648" lon="4.71316">
        <ele>279.4</ele>
        <time>2022-03-17T13:38:12Z</time>
      </trkpt>
      <trkpt lat="45.38623" lon="4.71347">
        <ele>278.92</ele>
        <time>2022-03-17T13:38:32Z</time>
      </trkpt>
      <trkpt lat="45.38617" lon="4.71378">
        <ele>279.4</ele>
        <time>2022-03-17T13:38:50Z</time>
      </trkpt>
      <trkpt lat="45.38617" lon="4.71406">
        <ele>279.4</ele>
        <time>2022-03-17T13:39:07Z</time>
      </trkpt>
      <trkpt lat="45.38619" lon="4.71426">
        <ele>279.88</ele>
        <time>2022-03-17T13:39:23Z</time>
      </trkpt>
      <trkpt lat="45.38622" lon="4.71451">
        <ele>279.4</ele>
        <time>2022-03-17T13:39:39Z</time>
      </trkpt>
      <trkpt lat="45.38625" lon="4.7147">
        <ele>278.44</ele>
        <time>2022-03-17T13:39:54Z</time>
      </trkpt>
      <trkpt lat="45.3862" lon="4.71491">
        <ele>277.48</ele>
        <time>2022-03-17T13:40:11Z</time>
      </trkpt>
      <trkpt lat="45.38607" lon="4.71506">
        <ele>277.96</ele>
        <time>2022-03-17T13:40:30Z</time>
      </trkpt>
      <trkpt lat="45.38584" lon="4.71527">
        <ele>277.96</ele>
        <time>2022-03-17T13:40:53Z</time>
      </trkpt>
      <trkpt lat="45.38564" lon="4.71557">
        <ele>277</ele>
        <time>2022-03-17T13:41:11Z</time>
      </trkpt>
      <trkpt lat="45.38556" lon="4.7157">
        <ele>276.52</ele>
        <time>2022-03-17T13:41:22Z</time>
      </trkpt>
      <trkpt lat="45.38552" lon="4.71578">
        <ele>277</ele>
        <time>2022-03-17T13:41:40Z</time>
      </trkpt>
      <trkpt lat="45.38546" lon="4.71598">
        <ele>276.52</ele>
        <time>2022-03-17T13:42:00Z</time>
      </trkpt>
      <trkpt lat="45.38538" lon="4.71621">
        <ele>277.48</ele>
        <time>2022-03-17T13:42:15Z</time>
      </trkpt>
      <trkpt lat="45.38539" lon="4.71641">
        <ele>277</ele>
        <time>2022-03-17T13:42:29Z</time>
      </trkpt>
      <trkpt lat="45.38539" lon="4.71643">
        <ele>277</ele>
        <time>2022-03-17T13:42:31Z</time>
      </trkpt>
      <trkpt lat="45.38546" lon="4.71662">
        <ele>275.56</ele>
        <time>2022-03-17T13:42:44Z</time>
      </trkpt>
      <trkpt lat="45.38554" lon="4.71688">
        <ele>276.04</ele>
        <time>2022-03-17T13:43:01Z</time>
      </trkpt>
      <trkpt lat="45.38555" lon="4.71712">
        <ele>276.04</ele>
        <time>2022-03-17T13:43:18Z</time>
      </trkpt>
      <trkpt lat="45.38558" lon="4.71732">
        <ele>275.56</ele>
        <time>2022-03-17T13:43:35Z</time>
      </trkpt>
      <trkpt lat="45.38567" lon="4.71763">
        <ele>275.07</ele>
        <time>2022-03-17T13:43:51Z</time>
      </trkpt>
      <trkpt lat="45.38566" lon="4.71791">
        <ele>275.56</ele>
        <time>2022-03-17T13:44:08Z</time>
      </trkpt>
      <trkpt lat="45.38561" lon="4.71818">
        <ele>276.52</ele>
        <time>2022-03-17T13:44:25Z</time>
      </trkpt>
      <trkpt lat="45.38554" lon="4.71847">
        <ele>276.52</ele>
        <time>2022-03-17T13:44:42Z</time>
      </trkpt>
      <trkpt lat="45.38548" lon="4.71867">
        <ele>275.56</ele>
        <time>2022-03-17T13:44:57Z</time>
      </trkpt>
      <trkpt lat="45.38539" lon="4.71896">
        <ele>275.56</ele>
        <time>2022-03-17T13:45:14Z</time>
      </trkpt>
      <trkpt lat="45.38536" lon="4.71926">
        <ele>275.07</ele>
        <time>2022-03-17T13:45:32Z</time>
      </trkpt>
      <trkpt lat="45.38538" lon="4.71947">
        <ele>272.67</ele>
        <time>2022-03-17T13:45:49Z</time>
      </trkpt>
      <trkpt lat="45.38533" lon="4.71978">
        <ele>271.71</ele>
        <time>2022-03-17T13:46:05Z</time>
      </trkpt>
      <trkpt lat="45.38529" lon="4.72004">
        <ele>270.75</ele>
        <time>2022-03-17T13:46:21Z</time>
      </trkpt>
      <trkpt lat="45.38526" lon="4.72032">
        <ele>268.83</ele>
        <time>2022-03-17T13:46:37Z</time>
      </trkpt>
      <trkpt lat="45.38526" lon="4.72056">
        <ele>265.94</ele>
        <time>2022-03-17T13:46:53Z</time>
      </trkpt>
      <trkpt lat="45.38524" lon="4.7208">
        <ele>264.5</ele>
        <time>2022-03-17T13:47:09Z</time>
      </trkpt>
      <trkpt lat="45.38521" lon="4.72106">
        <ele>263.06</ele>
        <time>2022-03-17T13:47:26Z</time>
      </trkpt>
      <trkpt lat="45.38514" lon="4.72135">
        <ele>261.14</ele>
        <time>2022-03-17T13:47:44Z</time>
      </trkpt>
      <trkpt lat="45.3851" lon="4.72152">
        <ele>259.69</ele>
        <time>2022-03-17T13:47:58Z</time>
      </trkpt>
      <trkpt lat="45.3851" lon="4.7216">
        <ele>257.77</ele>
        <time>2022-03-17T13:48:11Z</time>
      </trkpt>
      <trkpt lat="45.38512" lon="4.72168">
        <ele>256.81</ele>
        <time>2022-03-17T13:48:24Z</time>
      </trkpt>
      <trkpt lat="45.38517" lon="4.72172">
        <ele>256.33</ele>
        <time>2022-03-17T13:48:30Z</time>
      </trkpt>
      <trkpt lat="45.38522" lon="4.72179">
        <ele>255.85</ele>
        <time>2022-03-17T13:48:44Z</time>
      </trkpt>
      <trkpt lat="45.38528" lon="4.72192">
        <ele>254.89</ele>
        <time>2022-03-17T13:48:54Z</time>
      </trkpt>
      <trkpt lat="45.38534" lon="4.72212">
        <ele>254.41</ele>
        <time>2022-03-17T13:49:08Z</time>
      </trkpt>
      <trkpt lat="45.38541" lon="4.72238">
        <ele>252.96</ele>
        <time>2022-03-17T13:49:23Z</time>
      </trkpt>
      <trkpt lat="45.38542" lon="4.72258">
        <ele>252</ele>
        <time>2022-03-17T13:49:36Z</time>
      </trkpt>
      <trkpt lat="45.38546" lon="4.72266">
        <ele>249.6</ele>
        <time>2022-03-17T13:49:48Z</time>
      </trkpt>
      <trkpt lat="45.38546" lon="4.72267">
        <ele>250.08</ele>
        <time>2022-03-17T13:49:50Z</time>
      </trkpt>
      <trkpt lat="45.38554" lon="4.72268">
        <ele>247.2</ele>
        <time>2022-03-17T13:50:03Z</time>
      </trkpt>
      <trkpt lat="45.38556" lon="4.72272">
        <ele>246.23</ele>
        <time>2022-03-17T13:50:09Z</time>
      </trkpt>
      <trkpt lat="45.38565" lon="4.72295">
        <ele>244.79</ele>
        <time>2022-03-17T13:50:24Z</time>
      </trkpt>
      <trkpt lat="45.3858" lon="4.72299">
        <ele>246.72</ele>
        <time>2022-03-17T13:50:39Z</time>
      </trkpt>
      <trkpt lat="45.38584" lon="4.72315">
        <ele>248.16</ele>
        <time>2022-03-17T13:50:54Z</time>
      </trkpt>
      <trkpt lat="45.38585" lon="4.72321">
        <ele>248.64</ele>
        <time>2022-03-17T13:50:58Z</time>
      </trkpt>
      <trkpt lat="45.38582" lon="4.72353">
        <ele>248.64</ele>
        <time>2022-03-17T13:51:18Z</time>
      </trkpt>
      <trkpt lat="45.38578" lon="4.72379">
        <ele>249.12</ele>
        <time>2022-03-17T13:51:37Z</time>
      </trkpt>
      <trkpt lat="45.38578" lon="4.72399">
        <ele>250.08</ele>
        <time>2022-03-17T13:51:52Z</time>
      </trkpt>
      <trkpt lat="45.3857" lon="4.72423">
        <ele>248.16</ele>
        <time>2022-03-17T13:52:08Z</time>
      </trkpt>
      <trkpt lat="45.38556" lon="4.72437">
        <ele>247.2</ele>
        <time>2022-03-17T13:52:22Z</time>
      </trkpt>
      <trkpt lat="45.38553" lon="4.7244">
        <ele>244.79</ele>
        <time>2022-03-17T13:52:29Z</time>
      </trkpt>
      <trkpt lat="45.38546" lon="4.72448">
        <ele>242.87</ele>
        <time>2022-03-17T13:52:44Z</time>
      </trkpt>
      <trkpt lat="45.38543" lon="4.72466">
        <ele>241.91</ele>
        <time>2022-03-17T13:52:59Z</time>
      </trkpt>
      <trkpt lat="45.38542" lon="4.72466">
        <ele>241.43</ele>
        <time>2022-03-17T13:53:15Z</time>
        <extensions>
          <visugpx:TrkExtension xmlns:visugpx="https://www.visugpx.com/editgpx/">
            <visugpx:node>10</visugpx:node>
            </visugpx:TrkExtension>
        </extensions>
      </trkpt>
    </trkseg>
  </trk>
</gpx>